Shannon, Ireland

6:00 AM IST on July 12, 2014 (GMT +0100)
Shannon (EINN) Elev 66 ft | 52.70 °N, 8.92 °W | Change Station

Current weather conditions updated 30 minutes ago

Mostly Cloudy
Mostly Cloudy
61 °F
Feels Like 61 °F
N
7
Wind Variable Wind from SSE

Today is forecast to be nearly the same temperature as yesterday. Chance of showers.

Today
High -- | Low -- °F
--% Chance of Precip.
Yesterday
High -- | Low -- °F
Precip. -- in
5:26 AM 9:55 PM
Full, 100% visible
Pressure 29.95 in
Visibility 4.3 miles
Clouds Scattered Clouds 300 ft
Mostly Cloudy 600 ft
Dew Point 59 °F
Humidity 94%
Rainfall 0.00 in
Snow Depth Not available.
UV 0 out of 12
Pollen Not available.
Air Quality Not available.
Flu Activity Not available.
METAR EINN 120430Z 16006KT 7000 SCT003 BKN006 16/15 Q1014 TEMPO BKN003

More Conditions Fewer Conditions

Pressure 29.95 in
Visibility 4.3 miles
Clouds Scattered Clouds 300 ft
Mostly Cloudy 600 ft
Dew Point 59 °F
Humidity 94%
Rainfall 0.00 in
Snow Depth Not available.
UV 0 out of 12
Pollen Not available.
Air Quality Not available.
Flu Activity Not available.
METAR EINN 120430Z 16006KT 7000 SCT003 BKN006 16/15 Q1014 TEMPO BKN003

More Conditions Fewer Conditions

10-Day Weather Forecast

Almanac

Astronomy

Jul. 12, 2014 Rise Set
Actual Time 5:26 AM IST 9:55 PM IST
Civil Twilight 4:38 AM IST 10:43 PM IST
Nautical Twilight 3:24 AM IST 11:56 PM IST
Astronomical Twilight 2:13 AM IST 1:08 AM IST
Moon 9:30 PM IST 5:42 AM IST
Length of Visible Light 18h 04m
Length of Day
16h 29m
Tomorrow will be 2m 7s shorter.
Full, 100% of the Moon is Illuminated
Today
Full
Jul 12
Full
Jul 18
Last Quarter
Jul 26
New
Aug 3
First Quarter

Yesterday's Extremes

Country Highs Country Lows

Community

WunderPhotos

Upload Photos

1,732,711 photos uploaded!

Nearby

Snow Depth

Not available.

Earthquake Activity

City Distance Mag. Time & Date
No recent earthquake activity has been reported nearby.
Minimum magnitude displayed is 2.5.

Coastal Water Temperatures

Place Temperature
No Stations Reporting

Nearby Weather Stations

Station Location Temp. Dew Point Humidity Wind Precip. Elev Updated Type
Clonigulane, Kilmihil 59.2 °F 59 °F 99% North  at  0.0 mph 0.00 in / hr 354 ft 5:59 AM IST Normal
Gardenfield, Newcastle West 61.2 °F 58 °F 89% SE  at  6.2 mph 0.00 in / hr 243 ft 6:00 AM IST Rapid Fire
Clare Glens, Newport, Clare Glens 59.0 °F 53 °F 81% SSE  at  2.9 mph 0.00 in / hr 367 ft 6:00 AM IST Normal

Show More Stations Show Fewer Stations